Latest Weather Observations for Applethorpe

IDQ60801

Issued at 9:32 pm EST Thursday 5 March 2015 (issued every 30 minutes, with the page automatically refreshed every 10 minutes)

About weather observations | Map of weather stations | Latest weather observations for QLD | Other Formats
Station Details ID: 041175 Name: APPLETHORPE Lat: -28.62 Lon: 151.95 Height: 871.6 m
Data from the previous 72 hours. | See also: Recent months at Applethorpe
Date/Time
EST
Temp
°C
App
Temp
°C
Dew
Point
Rel
Hum
%
Delta-T
°C
Wind Press
QNH
hPa
Press
MSL
hPa
Rain
since 9 am
mm
Dir
 
Spd
km/h
Gust
km/h
Spd
kts
Gust
kts
05/09:30pm 19.4 19.4 15.3 77 2.5 E 9 19 5 10 1013.5 1009.4 0.0
05/09:00pm 19.6 19.7 14.5 72 3.1 E 7 15 4 8 1013.3 1009.3 0.0
05/08:30pm 18.2 17.9 11.5 65 3.8 ESE 4 7 2 4 1012.8 1008.7 0.0
05/08:00pm 19.0 19.0 11.3 61 4.4 SSW 2 4 1 2 1012.1 1008.0 0.0
05/07:30pm 20.4 20.5 11.4 56 5.2 SSW 2 2 1 1 1011.8 1007.7 0.0
05/07:00pm 22.5 22.0 10.9 48 6.7 WSW 4 6 2 3 1011.5 1007.4 0.0
05/06:30pm 24.6 22.9 7.5 33 9.4 WSW 6 9 3 5 1011.2 1007.0 0.0
05/06:00pm 25.8 23.6 7.8 32 10.0 WSW 9 15 5 8 1010.9 1006.8 0.0
05/05:30pm 27.3 24.3 7.6 28 11.0 WSW 13 20 7 11 1010.6 1006.5 0.0
05/05:00pm 28.0 24.9 8.7 29 11.0 WSW 15 26 8 14 1010.4 1006.3 0.0
05/04:30pm 28.3 25.4 9.5 30 10.9 WSW 15 26 8 14 1010.2 1006.0 0.0
05/04:00pm 28.8 24.8 8.2 27 11.7 WSW 19 32 10 17 1009.9 1005.7 0.0
05/03:30pm 29.0 25.1 8.8 28 11.6 SW 19 32 10 17 1010.0 1005.8 0.0
05/03:00pm 29.3 25.5 9.0 28 11.7 SW 19 35 10 19 1010.0 1005.8 0.0
05/02:30pm 29.7 25.8 8.7 27 12.1 SW 19 39 10 21 1010.1 1005.9 0.0
05/02:00pm 29.4 25.8 10.0 30 11.4 SW 19 41 10 22 1010.2 1006.0 0.0
05/01:30pm 29.1 26.1 11.9 34 10.4 WSW 19 32 10 17 1010.7 1006.6 0.0
05/01:00pm 29.3 26.3 12.1 34 10.4 WSW 19 33 10 18 1011.1 1006.9 0.0
05/12:30pm 29.3 26.8 11.2 32 10.8 WSW 15 24 8 13 1011.4 1007.3 0.0
05/12:00pm 28.5 25.0 10.3 32 10.7 WSW 19 37 10 20 1011.8 1007.7 0.0
05/11:30am 28.2 25.8 12.8 38 9.4 WSW 17 32 9 17 1012.3 1008.1 0.0
05/11:00am 27.7 25.6 12.5 39 9.2 WSW 15 26 8 14 1012.7 1008.6 0.0
05/10:30am 27.1 24.5 12.1 39 9.0 WSW 17 30 9 16 1012.7 1008.6 0.0
05/10:00am 26.8 25.7 14.2 46 7.8 WSW 13 20 7 11 1012.9 1008.8 0.0
05/09:30am 25.8 24.3 14.3 49 7.1 W 15 24 8 13 1013.0 1008.9 0.0
05/09:00am 25.4 24.7 14.4 50 6.8 WNW 11 20 6 11 1012.8 1008.7 0.0
05/08:30am 24.6 23.5 14.4 53 6.3 WNW 13 24 7 13 1012.9 1008.8 0.0
05/08:00am 23.2 21.3 14.2 57 5.5 W 17 28 9 15 1013.0 1008.9 0.0
05/07:30am 22.1 20.6 14.2 61 4.8 WNW 15 24 8 13 1013.0 1008.9 0.0
05/07:00am 21.4 20.7 14.3 64 4.3 WNW 11 24 6 13 1013.1 1009.0 0.0
05/06:30am 20.7 20.8 14.4 67 3.8 WNW 7 17 4 9 1012.9 1008.8 0.0
05/06:00am 20.2 20.2 14.2 68 3.6 WNW 7 15 4 8 1012.6 1008.5 0.0
05/05:30am 19.8 20.1 14.5 71 3.2 WNW 6 11 3 6 1012.5 1008.4 0.0
05/05:00am 20.0 20.7 14.6 71 3.3 WNW 4 7 2 4 1012.5 1008.4 0.0
05/04:30am 20.4 20.2 14.7 70 3.5 W 9 15 5 8 1012.6 1008.5 0.0
05/04:00am 20.6 20.9 14.9 70 3.5 NNW 7 15 4 8 1012.4 1008.3 0.0
05/03:30am 20.9 21.2 15.0 69 3.6 NNW 7 15 4 8 1012.4 1008.3 0.0
05/03:00am 21.4 20.4 14.7 65 4.1 NNW 13 22 7 12 1012.4 1008.3 0.0
05/02:30am 21.7 22.0 14.9 65 4.2 NNW 7 17 4 9 1012.7 1008.6 0.0
05/02:00am 21.8 21.8 15.3 66 4.0 N 9 17 5 9 1013.0 1008.9 0.0
05/01:30am 21.9 22.1 15.8 68 3.8 NNW 9 19 5 10 1013.6 1009.5 0.0
05/01:00am 21.8 22.1 15.9 69 3.7 NNW 9 15 5 8 1013.8 1009.7 0.0
05/12:30am 21.6 22.5 16.0 70 3.5 N 6 11 3 6 1014.1 1010.0 0.0
05/12:00am 19.6 22.2 17.4 87 1.4 CALM 0 0 0 0 1014.4 1010.4 0.0
 
Date/Time
EST
Temp
°C
App
Temp
°C
Dew
Point
Rel
Hum
%
Delta-T
°C
Wind Press
QNH
hPa
Press
MSL
hPa
Rain
since 9 am
mm
Dir
 
Spd
km/h
Gust
km/h
Spd
kts
Gust
kts
04/11:30pm 20.2 22.4 17.5 84 1.7 ENE 2 4 1 2 1014.8 1010.7 0.0
04/11:00pm 20.6 22.9 17.8 84 1.8 ENE 2 4 1 2 1015.1 1011.0 0.0
04/10:30pm 20.8 23.5 17.8 83 1.9 CALM 0 2 0 1 1015.5 1011.5 0.0
04/10:00pm 22.1 23.8 17.1 73 3.2 N 4 7 2 4 1015.7 1011.7 0.0
04/09:30pm 21.5 23.1 17.8 79 2.4 NNE 6 9 3 5 1016.0 1011.9 0.0
04/09:00pm 20.5 23.1 18.5 88 1.3 NNE 2 9 1 5 1016.1 1012.0 0.0
04/08:30pm 21.0 24.1 18.7 87 1.5 CALM 0 0 0 0 1016.2 1012.1 0.0
04/08:00pm 21.9 25.0 18.7 82 2.1 CALM 0 0 0 0 1016.1 1012.0 0.0
04/07:30pm 22.7 25.7 18.4 76 2.8 CALM 0 0 0 0 1016.0 1011.9 0.0
04/07:00pm 24.2 26.0 17.4 65 4.4 WSW 4 6 2 3 1015.7 1011.7 0.0
04/06:30pm 25.0 27.2 18.4 66 4.3 W 4 4 2 2 1015.4 1011.4 0.0
04/06:00pm 28.0 29.8 17.4 52 6.9 WSW 4 6 2 3 1015.2 1011.1 0.0
04/05:30pm 28.8 29.7 16.2 46 8.1 WSW 6 15 3 8 1015.0 1010.9 0.0
04/05:00pm 29.6 30.4 16.4 45 8.5 W 7 13 4 7 1014.9 1010.8 0.0
04/04:30pm 29.4 29.5 15.6 43 8.8 W 9 15 5 8 1014.9 1010.8 0.0
04/04:00pm 29.7 30.0 16.0 43 8.8 SW 9 15 5 8 1014.9 1010.8 0.0
04/03:30pm 29.5 30.4 16.5 45 8.4 SW 7 17 4 9 1015.0 1010.9 0.0
04/03:00pm 29.1 29.3 16.7 47 8.0 SW 11 17 6 9 1015.2 1011.1 0.0
04/02:30pm 29.4 30.0 16.7 46 8.2 SW 9 17 5 9 1015.6 1011.6 0.0
04/02:00pm 28.0 28.7 17.0 51 7.1 WSW 9 15 5 8 1016.0 1011.9 0.0
04/01:30pm 29.4 30.1 16.2 44 8.5 WNW 7 17 4 9 1016.3 1012.2 0.0
04/01:00pm 29.5 30.5 16.9 46 8.2 SW 7 20 4 11 1016.7 1012.7 0.0
04/12:30pm 29.1 29.7 15.8 44 8.5 WSW 7 13 4 7 1017.0 1013.0 0.0
04/12:00pm 28.9 28.9 13.7 39 9.4 W 6 15 3 8 1017.5 1013.5 0.0
04/11:30am 27.9 29.2 15.2 46 8.0 S 2 7 1 4 1017.9 1013.9 0.0
04/11:00am 27.4 27.9 14.0 43 8.3 SW 4 9 2 5 1018.2 1014.2 0.0
04/10:30am 27.0 26.7 12.8 41 8.6 N 6 9 3 5 1018.5 1014.5 0.0
04/10:00am 26.8 26.8 12.3 40 8.7 NNE 4 6 2 3 1018.8 1014.8 0.0
04/09:30am 25.9 25.7 11.7 41 8.4 ENE 4 6 2 3 1018.9 1014.9 0.0
04/09:00am 24.5 24.4 12.2 46 7.3 NNE 4 6 2 3 1018.8 1014.8 0.0
04/08:30am 23.3 23.1 11.9 48 6.7 NE 4 7 2 4 1018.7 1014.7 0.0
04/08:00am 21.4 22.6 13.9 62 4.5 CALM 0 0 0 0 1018.6 1014.6 0.0
04/07:30am 18.8 20.8 16.0 84 1.7 CALM 0 0 0 0 1018.3 1014.3 0.0
04/07:00am 17.1 18.8 16.1 94 0.6 SW 2 6 1 3 1018.0 1014.0 0.0
04/06:30am 16.3 17.9 16.0 98 0.2 NE 2 4 1 2 1017.4 1013.3 0.0
04/06:00am 15.9 17.7 15.6 98 0.2 CALM 0 0 0 0 1017.4 1013.3 0.0
04/05:30am 16.2 18.2 16.0 99 0.1 CALM 0 0 0 0 1017.2 1013.1 0.0
04/05:00am 16.6 18.7 16.3 98 0.2 CALM 0 0 0 0 1016.8 1012.8 0.0
04/04:30am 16.8 18.9 16.3 97 0.3 CALM 0 0 0 0 1016.5 1012.5 0.0
04/04:00am 16.9 19.1 16.6 98 0.2 CALM 0 0 0 0 1016.5 1012.5 0.0
04/03:30am 17.0 18.9 16.7 98 0.2 E 2 6 1 3 1016.7 1012.7 0.0
04/03:00am 17.4 19.0 16.9 97 0.3 ENE 4 6 2 3 1016.8 1012.8 0.0
04/02:30am 17.4 18.6 16.9 97 0.3 ENE 6 9 3 5 1017.2 1013.1 0.0
04/02:00am 17.6 19.0 17.3 98 0.2 NE 6 9 3 5 1017.5 1013.5 0.0
04/01:30am 17.8 19.2 17.3 97 0.3 ENE 6 11 3 6 1017.7 1013.7 0.0
04/01:00am 17.9 19.1 17.4 97 0.3 ENE 7 13 4 7 1018.2 1014.2 0.0
04/12:30am 18.2 19.7 17.6 96 0.4 ENE 6 9 3 5 1018.6 1014.6 0.0
04/12:00am 18.1 19.9 17.3 95 0.5 ENE 4 7 2 4 1018.7 1014.7 0.0
 
Date/Time
EST
Temp
°C
App
Temp
°C
Dew
Point
Rel
Hum
%
Delta-T
°C
Wind Press
QNH
hPa
Press
MSL
hPa
Rain
since 9 am
mm
Dir
 
Spd
km/h
Gust
km/h
Spd
kts
Gust
kts
03/11:30pm 18.3 20.1 17.5 95 0.5 ENE 4 9 2 5 1019.1 1015.1 0.0
03/11:00pm 18.6 20.5 17.7 94 0.6 ENE 4 7 2 4 1019.2 1015.2 0.0
03/10:30pm 18.4 20.7 17.6 95 0.5 ENE 2 4 1 2 1019.4 1015.4 0.0
03/10:00pm 18.6 20.8 17.5 93 0.7 ENE 2 6 1 3 1019.5 1015.6 0.0
03/09:30pm 18.7 21.0 17.6 93 0.7 E 2 4 1 2 1019.7 1015.7 0.0
03/09:00pm 19.2 21.2 17.8 92 0.9 ENE 4 7 2 4 1019.5 1015.6 0.0
03/08:30pm 19.4 21.3 17.7 90 1.1 ENE 4 9 2 5 1019.3 1015.3 0.0
03/08:00pm 19.7 21.7 17.8 89 1.2 ENE 4 7 2 4 1018.9 1014.9 0.0
03/07:30pm 20.2 22.2 17.9 87 1.5 ENE 4 9 2 5 1018.7 1014.7 0.0
03/07:00pm 20.9 22.9 17.8 82 2.0 ENE 4 9 2 5 1018.2 1014.2 0.0
03/06:30pm 21.7 23.1 17.8 78 2.5 ENE 7 13 4 7 1017.9 1013.9 0.0
03/06:00pm 22.9 24.3 17.9 73 3.2 ENE 7 15 4 8 1017.7 1013.7 0.0
03/05:30pm 24.4 26.1 18.1 68 4.1 ENE 6 15 3 8 1017.4 1013.3 0.0
03/05:00pm 25.1 26.6 18.0 64 4.6 E 7 13 4 7 1017.2 1013.1 0.0
03/04:30pm 26.0 27.7 18.6 63 4.9 NE 7 15 4 8 1016.9 1012.9 0.0
03/04:00pm 26.6 28.0 18.6 61 5.3 ENE 9 19 5 10 1016.7 1012.7 0.0
03/03:30pm 27.0 29.3 18.5 59 5.6 E 4 9 2 5 1016.7 1012.7 0.0
03/03:00pm 26.1 27.7 18.2 61 5.2 E 7 13 4 7 1016.9 1012.9 0.0
03/02:30pm 26.6 28.1 17.7 58 5.8 E 6 11 3 6 1017.2 1013.1 0.0
03/02:00pm 27.1 28.8 18.5 59 5.7 NE 7 13 4 7 1017.4 1013.3 0.0
03/01:30pm 25.1 25.4 17.0 60 5.2 NNE 11 20 6 11 1017.9 1013.9 0.0
03/01:00pm 26.4 28.4 17.8 59 5.6 ENE 4 7 2 4 1018.2 1014.2 0.0
03/12:30pm 24.6 25.5 16.6 61 5.1 NE 7 13 4 7 1018.7 1014.7 0.0
03/12:00pm 24.3 25.2 16.0 60 5.2 NE 6 13 3 7 1019.0 1015.0 0.0
03/11:30am 23.9 24.8 16.7 64 4.6 NNE 7 13 4 7 1019.2 1015.2 0.0
03/11:00am 24.0 25.5 16.6 63 4.7 NE 4 7 2 4 1019.5 1015.6 0.0
03/10:30am 22.9 23.6 15.5 63 4.6 E 6 9 3 5 1020.2 1016.2 0.0
03/10:00am 22.3 23.0 15.5 65 4.2 ESE 6 9 3 5 1020.2 1016.2 0.0
03/09:30am 21.0 21.6 15.3 70 3.5 ENE 6 13 3 7 1020.2 1016.2 0.0
03/09:00am 19.9 19.9 15.2 74 2.9 E 9 15 5 8 1020.0 1016.0 0.0
03/08:30am 18.4 18.3 14.9 80 2.1 ESE 9 17 5 9 1019.9 1015.9 0.0
03/08:00am 18.3 18.2 15.0 81 2.0 E 9 17 5 9 1019.8 1015.8 0.0
03/07:30am 17.3 17.1 14.6 84 1.6 E 9 17 5 9 1019.4 1015.4 0.0
03/07:00am 17.2 17.7 14.9 86 1.4 E 6 15 3 8 1019.1 1015.1 0.0
03/06:30am 16.7 17.0 14.9 89 1.1 E 7 15 4 8 1018.7 1014.7 0.0
03/06:00am 16.5 17.1 15.2 92 0.8 ENE 6 13 3 7 1018.5 1014.5 0.0
03/05:30am 16.2 16.7 15.0 93 0.7 E 6 11 3 6 1018.1 1014.1 0.0
03/05:00am 15.6 16.1 14.9 96 0.4 ENE 6 9 3 5 1017.9 1013.9 0.0
03/04:30am 15.4 15.8 14.7 96 0.4 E 6 9 3 5 1017.7 1013.7 0.0
03/04:00am 15.5 16.3 14.7 95 0.5 ENE 4 9 2 5 1017.8 1013.8 0.0
03/03:30am 15.8 16.6 14.8 94 0.6 ENE 4 9 2 5 1017.9 1013.9 0.0
03/03:00am 16.2 16.7 14.9 92 0.8 E 6 13 3 7 1017.9 1013.9 0.0
03/02:30am 16.8 17.1 15.1 90 1.0 ESE 7 17 4 9 1018.1 1014.1 0.0
03/02:00am 16.9 17.5 15.2 90 1.0 ESE 6 13 3 7 1018.3 1014.3 0.0
03/01:30am 16.9 17.5 15.2 90 1.0 ESE 6 15 3 8 1018.6 1014.6 0.0
03/01:00am 17.2 17.7 15.6 90 1.0 ESE 7 15 4 8 1019.0 1015.0 0.0
03/12:30am 17.3 17.4 15.5 89 1.1 ESE 9 19 5 10 1019.2 1015.2 0.0
03/12:00am 17.4 17.5 15.6 89 1.1 E 9 19 5 10 1019.5 1015.6 0.0
 
Date/Time
EST
Temp
°C
App
Temp
°C
Dew
Point
Rel
Hum
%
Delta-T
°C
Wind Press
QNH
hPa
Press
MSL
hPa
Rain
since 9 am
mm
Dir
 
Spd
km/h
Gust
km/h
Spd
kts
Gust
kts
02/11:30pm 17.7 17.9 15.7 88 1.2 E 9 19 5 10 1019.7 1015.7 0.0
02/11:00pm 17.8 18.0 15.7 87 1.3 ESE 9 19 5 10 1019.8 1015.8 0.0
02/10:30pm 17.8 17.2 15.7 87 1.3 ESE 13 24 7 13 1019.7 1015.7 0.0
02/10:00pm 18.1 17.6 16.0 87 1.3 ESE 13 24 7 13 1019.5 1015.6 0.0

Other Formats:

Comma delimited format used in spreadsheet applications
http://www.bom.gov.au/fwo/IDQ60801/IDQ60801.94553.axf

JavaScript Object Notation format (JSON) in row-major order
http://www.bom.gov.au/fwo/IDQ60801/IDQ60801.94553.json